sensor_id;sensor_type;location;lat;lon;timestamp;temperature;humidity
34460;DHT22;20704;51.260;22.558;2022-08-04T00:00:08;19.40;99.90
34460;DHT22;20704;51.260;22.558;2022-08-04T00:03:18;19.70;99.90
34460;DHT22;20704;51.260;22.558;2022-08-04T00:05:58;19.70;99.90
34460;DHT22;20704;51.260;22.558;2022-08-04T00:08:43;19.30;99.90
34460;DHT22;20704;51.260;22.558;2022-08-04T00:11:22;19.50;99.90
34460;DHT22;20704;51.260;22.558;2022-08-04T00:13:57;19.20;99.90
34460;DHT22;20704;51.260;22.558;2022-08-04T00:16:28;19.30;99.90
34460;DHT22;20704;51.260;22.558;2022-08-04T00:19:03;19.40;99.90
34460;DHT22;20704;51.260;22.558;2022-08-04T00:21:32;19.10;99.90
34460;DHT22;20704;51.260;22.558;2022-08-04T00:24:01;23.80;99.90
34460;DHT22;20704;51.260;22.558;2022-08-04T00:28:55;19.20;99.90
34460;DHT22;20704;51.260;22.558;2022-08-04T00:31:21;19.20;99.90
34460;DHT22;20704;51.260;22.558;2022-08-04T00:33:47;19.20;99.90
34460;DHT22;20704;51.260;22.558;2022-08-04T00:36:15;19.20;99.90
34460;DHT22;20704;51.260;22.558;2022-08-04T00:38:43;19.00;99.90
34460;DHT22;20704;51.260;22.558;2022-08-04T00:41:21;19.10;99.90
34460;DHT22;20704;51.260;22.558;2022-08-04T00:44:08;19.20;99.90
34460;DHT22;20704;51.260;22.558;2022-08-04T00:52:53;19.30;99.90
34460;DHT22;20704;51.260;22.558;2022-08-04T01:05:20;19.10;99.90
34460;DHT22;20704;51.260;22.558;2022-08-04T01:13:25;18.50;99.90
34460;DHT22;20704;51.260;22.558;2022-08-04T01:16:03;18.90;99.90
34460;DHT22;20704;51.260;22.558;2022-08-04T01:24:04;18.60;99.90
34460;DHT22;20704;51.260;22.558;2022-08-04T01:26:45;18.50;99.90
34460;DHT22;20704;51.260;22.558;2022-08-04T01:29:15;18.30;99.90
34460;DHT22;20704;51.260;22.558;2022-08-04T01:34:11;18.60;99.90
34460;DHT22;20704;51.260;22.558;2022-08-04T01:36:45;18.60;99.90
34460;DHT22;20704;51.260;22.558;2022-08-04T01:39:14;18.50;99.90
34460;DHT22;20704;51.260;22.558;2022-08-04T01:42:01;18.40;99.90
34460;DHT22;20704;51.260;22.558;2022-08-04T01:44:30;18.30;99.90
34460;DHT22;20704;51.260;22.558;2022-08-04T01:49:27;18.20;99.90
34460;DHT22;20704;51.260;22.558;2022-08-04T01:51:55;18.10;99.90
34460;DHT22;20704;51.260;22.558;2022-08-04T01:54:22;18.10;99.90
34460;DHT22;20704;51.260;22.558;2022-08-04T01:56:53;18.30;99.90
34460;DHT22;20704;51.260;22.558;2022-08-04T01:59:20;18.20;99.90
34460;DHT22;20704;51.260;22.558;2022-08-04T02:04:14;18.10;99.90
34460;DHT22;20704;51.260;22.558;2022-08-04T02:14:40;17.90;99.90
34460;DHT22;20704;51.260;22.558;2022-08-04T02:17:54;17.30;99.90
34460;DHT22;20704;51.260;22.558;2022-08-04T02:20:57;17.90;99.90
34460;DHT22;20704;51.260;22.558;2022-08-04T02:23:27;17.70;99.90
34460;DHT22;20704;51.260;22.558;2022-08-04T02:26:02;18.10;99.90
34460;DHT22;20704;51.260;22.558;2022-08-04T02:33:38;17.80;99.90
34460;DHT22;20704;51.260;22.558;2022-08-04T02:36:09;17.90;99.90
34460;DHT22;20704;51.260;22.558;2022-08-04T02:41:19;17.70;99.90
34460;DHT22;20704;51.260;22.558;2022-08-04T02:43:48;17.70;99.90
34460;DHT22;20704;51.260;22.558;2022-08-04T02:46:19;17.70;99.90
34460;DHT22;20704;51.260;22.558;2022-08-04T02:48:46;17.70;99.90
34460;DHT22;20704;51.260;22.558;2022-08-04T02:51:14;17.70;99.90
34460;DHT22;20704;51.260;22.558;2022-08-04T02:53:42;17.80;99.90
34460;DHT22;20704;51.260;22.558;2022-08-04T02:58:36;17.70;99.90
34460;DHT22;20704;51.260;22.558;2022-08-04T03:01:05;17.70;99.90
34460;DHT22;20704;51.260;22.558;2022-08-04T03:03:37;18.00;99.90
34460;DHT22;20704;51.260;22.558;2022-08-04T03:11:50;17.90;99.90
34460;DHT22;20704;51.260;22.558;2022-08-04T03:17:06;17.40;99.90
34460;DHT22;20704;51.260;22.558;2022-08-04T03:28:49;18.00;99.90
34460;DHT22;20704;51.260;22.558;2022-08-04T03:45:53;19.10;99.90
34460;DHT22;20704;51.260;22.558;2022-08-04T04:09:10;19.10;99.90
34460;DHT22;20704;51.260;22.558;2022-08-04T04:19:53;20.20;99.90
34460;DHT22;20704;51.260;22.558;2022-08-04T04:30:05;21.70;99.90
34460;DHT22;20704;51.260;22.558;2022-08-04T04:35:53;22.30;99.90
34460;DHT22;20704;51.260;22.558;2022-08-04T04:38:33;23.10;99.90
34460;DHT22;20704;51.260;22.558;2022-08-04T04:47:17;23.80;99.90
34460;DHT22;20704;51.260;22.558;2022-08-04T04:49:56;24.40;99.90
34460;DHT22;20704;51.260;22.558;2022-08-04T04:55:21;25.00;99.90
34460;DHT22;20704;51.260;22.558;2022-08-04T04:57:50;25.70;99.90
34460;DHT22;20704;51.260;22.558;2022-08-04T05:00:17;25.70;99.90
34460;DHT22;20704;51.260;22.558;2022-08-04T05:05:27;26.40;99.90
34460;DHT22;20704;51.260;22.558;2022-08-04T05:13:44;27.00;99.90
34460;DHT22;20704;51.260;22.558;2022-08-04T05:16:31;27.60;99.90
34460;DHT22;20704;51.260;22.558;2022-08-04T05:21:55;27.80;99.90
34460;DHT22;20704;51.260;22.558;2022-08-04T05:24:24;28.00;99.90
34460;DHT22;20704;51.260;22.558;2022-08-04T05:27:01;27.90;99.90
34460;DHT22;20704;51.260;22.558;2022-08-04T05:29:34;28.50;99.90
34460;DHT22;20704;51.260;22.558;2022-08-04T05:32:04;28.30;98.10
34460;DHT22;20704;51.260;22.558;2022-08-04T05:34:41;28.20;98.30
34460;DHT22;20704;51.260;22.558;2022-08-04T05:37:13;28.10;98.40
34460;DHT22;20704;51.260;22.558;2022-08-04T05:39:46;28.80;97.50
34460;DHT22;20704;51.260;22.558;2022-08-04T05:42:14;29.10;97.50
34460;DHT22;20704;51.260;22.558;2022-08-04T05:44:41;29.50;95.80
34460;DHT22;20704;51.260;22.558;2022-08-04T05:47:10;29.50;97.70
34460;DHT22;20704;51.260;22.558;2022-08-04T05:49:38;29.90;95.30
34460;DHT22;20704;51.260;22.558;2022-08-04T05:52:06;30.00;94.80
34460;DHT22;20704;51.260;22.558;2022-08-04T05:54:33;29.90;94.60
34460;DHT22;20704;51.260;22.558;2022-08-04T05:57:02;29.80;93.80
34460;DHT22;20704;51.260;22.558;2022-08-04T05:59:30;30.20;93.70
34460;DHT22;20704;51.260;22.558;2022-08-04T06:01:58;29.80;92.80
34460;DHT22;20704;51.260;22.558;2022-08-04T06:04:39;29.80;93.00
34460;DHT22;20704;51.260;22.558;2022-08-04T06:07:05;29.80;93.80
34460;DHT22;20704;51.260;22.558;2022-08-04T06:09:33;30.20;93.50
34460;DHT22;20704;51.260;22.558;2022-08-04T06:12:06;29.60;93.10
34460;DHT22;20704;51.260;22.558;2022-08-04T06:14:42;29.90;93.30
34460;DHT22;20704;51.260;22.558;2022-08-04T06:17:12;30.40;93.30
34460;DHT22;20704;51.260;22.558;2022-08-04T06:19:40;31.00;92.40
34460;DHT22;20704;51.260;22.558;2022-08-04T06:22:10;30.60;91.20
34460;DHT22;20704;51.260;22.558;2022-08-04T06:24:38;30.60;91.30
34460;DHT22;20704;51.260;22.558;2022-08-04T06:27:06;31.10;91.50
34460;DHT22;20704;51.260;22.558;2022-08-04T06:29:33;29.30;91.70
34460;DHT22;20704;51.260;22.558;2022-08-04T06:32:06;29.20;91.80
34460;DHT22;20704;51.260;22.558;2022-08-04T06:34:58;30.00;91.80
34460;DHT22;20704;51.260;22.558;2022-08-04T06:37:26;30.70;91.10
34460;DHT22;20704;51.260;22.558;2022-08-04T06:39:54;31.00;90.40
34460;DHT22;20704;51.260;22.558;2022-08-04T06:42:22;31.00;90.70
34460;DHT22;20704;51.260;22.558;2022-08-04T06:44:56;30.70;91.30
34460;DHT22;20704;51.260;22.558;2022-08-04T06:47:23;30.20;92.20
34460;DHT22;20704;51.260;22.558;2022-08-04T06:49:52;29.20;90.30
34460;DHT22;20704;51.260;22.558;2022-08-04T06:52:19;28.50;90.30
34460;DHT22;20704;51.260;22.558;2022-08-04T06:54:46;28.20;92.00
34460;DHT22;20704;51.260;22.558;2022-08-04T06:57:16;27.80;92.20
34460;DHT22;20704;51.260;22.558;2022-08-04T06:59:44;28.60;93.00
34460;DHT22;20704;51.260;22.558;2022-08-04T07:02:18;29.30;92.20
34460;DHT22;20704;51.260;22.558;2022-08-04T07:04:46;29.20;92.30
34460;DHT22;20704;51.260;22.558;2022-08-04T07:09:39;27.90;92.20
34460;DHT22;20704;51.260;22.558;2022-08-04T07:12:06;29.20;92.30
34460;DHT22;20704;51.260;22.558;2022-08-04T07:14:34;29.00;92.40
34460;DHT22;20704;51.260;22.558;2022-08-04T07:17:05;29.40;91.30
34460;DHT22;20704;51.260;22.558;2022-08-04T07:19:36;27.90;91.80
34460;DHT22;20704;51.260;22.558;2022-08-04T07:22:03;27.80;92.00
34460;DHT22;20704;51.260;22.558;2022-08-04T07:24:31;28.70;91.80
34460;DHT22;20704;51.260;22.558;2022-08-04T07:26:57;28.30;95.30
34460;DHT22;20704;51.260;22.558;2022-08-04T07:34:18;28.20;90.90
34460;DHT22;20704;51.260;22.558;2022-08-04T07:39:12;28.90;92.00
34460;DHT22;20704;51.260;22.558;2022-08-04T07:41:40;29.20;90.20
34460;DHT22;20704;51.260;22.558;2022-08-04T07:44:08;28.70;90.50
34460;DHT22;20704;51.260;22.558;2022-08-04T07:46:37;29.30;94.40
34460;DHT22;20704;51.260;22.558;2022-08-04T07:49:04;29.50;90.60
34460;DHT22;20704;51.260;22.558;2022-08-04T07:51:32;28.30;91.00
34460;DHT22;20704;51.260;22.558;2022-08-04T07:54:00;28.40;92.20
34460;DHT22;20704;51.260;22.558;2022-08-04T07:56:29;27.50;93.60
34460;DHT22;20704;51.260;22.558;2022-08-04T08:01:23;28.40;89.10
34460;DHT22;20704;51.260;22.558;2022-08-04T08:03:50;28.00;89.80
34460;DHT22;20704;51.260;22.558;2022-08-04T08:13:37;29.70;82.70
34460;DHT22;20704;51.260;22.558;2022-08-04T08:16:04;29.90;79.40
34460;DHT22;20704;51.260;22.558;2022-08-04T08:20:58;30.60;79.70
34460;DHT22;20704;51.260;22.558;2022-08-04T08:23:25;29.50;82.70
34460;DHT22;20704;51.260;22.558;2022-08-04T08:33:12;29.20;84.80
34460;DHT22;20704;51.260;22.558;2022-08-04T08:35:51;29.30;86.10
34460;DHT22;20704;51.260;22.558;2022-08-04T08:38:23;30.60;83.90
34460;DHT22;20704;51.260;22.558;2022-08-04T08:41:04;28.80;85.10
34460;DHT22;20704;51.260;22.558;2022-08-04T08:43:48;29.70;93.30
34460;DHT22;20704;51.260;22.558;2022-08-04T08:49:50;30.80;92.60
34460;DHT22;20704;51.260;22.558;2022-08-04T08:55:28;31.00;92.10
34460;DHT22;20704;51.260;22.558;2022-08-04T09:01:12;28.60;86.80
34460;DHT22;20704;51.260;22.558;2022-08-04T09:12:05;28.90;94.50
34460;DHT22;20704;51.260;22.558;2022-08-04T09:14:44;28.10;88.10
34460;DHT22;20704;51.260;22.558;2022-08-04T09:17:22;28.60;86.90
34460;DHT22;20704;51.260;22.558;2022-08-04T09:19:56;28.70;87.50
34460;DHT22;20704;51.260;22.558;2022-08-04T09:22:48;28.60;92.10
34460;DHT22;20704;51.260;22.558;2022-08-04T09:25:23;27.70;93.50
34460;DHT22;20704;51.260;22.558;2022-08-04T09:28:20;27.80;94.10
34460;DHT22;20704;51.260;22.558;2022-08-04T09:38:43;29.00;92.90
34460;DHT22;20704;51.260;22.558;2022-08-04T09:47:09;28.70;86.90
34460;DHT22;20704;51.260;22.558;2022-08-04T09:53:23;28.50;88.50
34460;DHT22;20704;51.260;22.558;2022-08-04T09:56:10;28.40;96.90
34460;DHT22;20704;51.260;22.558;2022-08-04T10:01:09;28.30;89.30
34460;DHT22;20704;51.260;22.558;2022-08-04T10:03:38;28.60;88.30
34460;DHT22;20704;51.260;22.558;2022-08-04T10:29:26;27.90;92.90
34460;DHT22;20704;51.260;22.558;2022-08-04T10:32:03;28.90;93.60
34460;DHT22;20704;51.260;22.558;2022-08-04T10:34:42;29.20;93.20
34460;DHT22;20704;51.260;22.558;2022-08-04T10:39:55;29.20;88.80
34460;DHT22;20704;51.260;22.558;2022-08-04T10:43:10;28.70;89.00
34460;DHT22;20704;51.260;22.558;2022-08-04T10:45:49;28.90;89.20
34460;DHT22;20704;51.260;22.558;2022-08-04T10:48:24;29.10;93.10
34460;DHT22;20704;51.260;22.558;2022-08-04T10:51:01;29.20;88.70
34460;DHT22;20704;51.260;22.558;2022-08-04T10:53:28;29.40;88.30
34460;DHT22;20704;51.260;22.558;2022-08-04T10:56:01;29.30;87.60
34460;DHT22;20704;51.260;22.558;2022-08-04T10:58:34;28.90;92.50
34460;DHT22;20704;51.260;22.558;2022-08-04T11:01:07;27.70;89.70
34460;DHT22;20704;51.260;22.558;2022-08-04T11:03:47;27.20;94.30
34460;DHT22;20704;51.260;22.558;2022-08-04T11:06:16;28.00;90.60
34460;DHT22;20704;51.260;22.558;2022-08-04T11:08:49;28.20;90.10
34460;DHT22;20704;51.260;22.558;2022-08-04T11:14:09;28.90;93.70
34460;DHT22;20704;51.260;22.558;2022-08-04T11:17:00;28.10;93.90
34460;DHT22;20704;51.260;22.558;2022-08-04T11:21:55;28.00;90.10
34460;DHT22;20704;51.260;22.558;2022-08-04T11:24:45;28.20;90.70
34460;DHT22;20704;51.260;22.558;2022-08-04T11:30:03;28.10;90.20
34460;DHT22;20704;51.260;22.558;2022-08-04T11:38:36;27.20;90.20
34460;DHT22;20704;51.260;22.558;2022-08-04T11:41:09;27.90;94.20
34460;DHT22;20704;51.260;22.558;2022-08-04T11:43:44;27.50;90.80
34460;DHT22;20704;51.260;22.558;2022-08-04T11:46:21;27.00;91.30
34460;DHT22;20704;51.260;22.558;2022-08-04T11:51:38;26.90;91.20
34460;DHT22;20704;51.260;22.558;2022-08-04T11:58:59;27.80;90.70
34460;DHT22;20704;51.260;22.558;2022-08-04T12:04:16;27.70;90.80
34460;DHT22;20704;51.260;22.558;2022-08-04T12:12:09;28.30;95.20
34460;DHT22;20704;51.260;22.558;2022-08-04T12:15:13;27.60;95.50
34460;DHT22;20704;51.260;22.558;2022-08-04T12:18:09;27.40;95.10
34460;DHT22;20704;51.260;22.558;2022-08-04T12:20:43;27.50;91.50
34460;DHT22;20704;51.260;22.558;2022-08-04T12:23:21;27.20;95.50
34460;DHT22;20704;51.260;22.558;2022-08-04T12:25:52;27.50;91.70
34460;DHT22;20704;51.260;22.558;2022-08-04T12:30:50;27.10;90.90
34460;DHT22;20704;51.260;22.558;2022-08-04T12:33:23;27.50;90.90
34460;DHT22;20704;51.260;22.558;2022-08-04T12:38:22;28.00;94.60
34460;DHT22;20704;51.260;22.558;2022-08-04T12:40:54;27.60;90.60
34460;DHT22;20704;51.260;22.558;2022-08-04T12:46:01;27.90;90.70
34460;DHT22;20704;51.260;22.558;2022-08-04T12:50:57;28.40;90.30
34460;DHT22;20704;51.260;22.558;2022-08-04T12:53:31;27.60;90.10
34460;DHT22;20704;51.260;22.558;2022-08-04T12:55:59;27.80;90.90
34460;DHT22;20704;51.260;22.558;2022-08-04T12:58:30;28.10;90.90
34460;DHT22;20704;51.260;22.558;2022-08-04T13:01:02;28.30;91.10
34460;DHT22;20704;51.260;22.558;2022-08-04T13:03:37;28.10;94.90
34460;DHT22;20704;51.260;22.558;2022-08-04T13:06:06;28.20;91.10
34460;DHT22;20704;51.260;22.558;2022-08-04T13:08:36;27.80;91.30
34460;DHT22;20704;51.260;22.558;2022-08-04T13:11:03;28.20;91.00
34460;DHT22;20704;51.260;22.558;2022-08-04T13:13:33;28.20;91.10
34460;DHT22;20704;51.260;22.558;2022-08-04T13:16:03;27.50;90.80
34460;DHT22;20704;51.260;22.558;2022-08-04T13:18:36;27.70;90.50
34460;DHT22;20704;51.260;22.558;2022-08-04T13:21:14;28.20;94.40
34460;DHT22;20704;51.260;22.558;2022-08-04T13:23:41;28.30;90.10
34460;DHT22;20704;51.260;22.558;2022-08-04T13:26:29;28.20;93.80
34460;DHT22;20704;51.260;22.558;2022-08-04T13:28:59;28.00;90.50
34460;DHT22;20704;51.260;22.558;2022-08-04T13:31:28;28.20;90.30
34460;DHT22;20704;51.260;22.558;2022-08-04T13:34:05;28.30;90.10
34460;DHT22;20704;51.260;22.558;2022-08-04T13:36:34;27.60;89.90
34460;DHT22;20704;51.260;22.558;2022-08-04T13:39:05;27.20;90.90
34460;DHT22;20704;51.260;22.558;2022-08-04T13:41:35;27.40;91.20
34460;DHT22;20704;51.260;22.558;2022-08-04T13:44:04;27.00;90.70
34460;DHT22;20704;51.260;22.558;2022-08-04T13:46:39;26.90;90.60
34460;DHT22;20704;51.260;22.558;2022-08-04T13:49:15;27.50;90.60
34460;DHT22;20704;51.260;22.558;2022-08-04T13:51:55;27.90;94.60
34460;DHT22;20704;51.260;22.558;2022-08-04T13:54:21;27.60;91.20
34460;DHT22;20704;51.260;22.558;2022-08-04T13:56:50;27.60;91.30
34460;DHT22;20704;51.260;22.558;2022-08-04T13:59:23;27.60;90.80
34460;DHT22;20704;51.260;22.558;2022-08-04T14:02:07;27.40;95.40
34460;DHT22;20704;51.260;22.558;2022-08-04T14:04:40;27.80;90.60
34460;DHT22;20704;51.260;22.558;2022-08-04T14:07:15;28.00;90.00
34460;DHT22;20704;51.260;22.558;2022-08-04T14:12:11;28.00;89.20
34460;DHT22;20704;51.260;22.558;2022-08-04T14:14:52;27.80;92.50
34460;DHT22;20704;51.260;22.558;2022-08-04T14:17:23;27.70;90.20
34460;DHT22;20704;51.260;22.558;2022-08-04T14:19:55;27.90;90.20
34460;DHT22;20704;51.260;22.558;2022-08-04T14:22:28;27.80;94.80
34460;DHT22;20704;51.260;22.558;2022-08-04T14:25:07;28.00;95.00
34460;DHT22;20704;51.260;22.558;2022-08-04T14:27:49;28.20;90.60
34460;DHT22;20704;51.260;22.558;2022-08-04T14:33:06;28.20;94.70
34460;DHT22;20704;51.260;22.558;2022-08-04T14:35:34;28.10;90.30
34460;DHT22;20704;51.260;22.558;2022-08-04T14:38:04;27.80;90.00
34460;DHT22;20704;51.260;22.558;2022-08-04T14:40:34;27.60;90.50
34460;DHT22;20704;51.260;22.558;2022-08-04T14:45:35;27.40;91.00
34460;DHT22;20704;51.260;22.558;2022-08-04T14:48:08;27.40;90.80
34460;DHT22;20704;51.260;22.558;2022-08-04T14:50:41;27.10;90.90
34460;DHT22;20704;51.260;22.558;2022-08-04T14:53:12;27.20;91.10
34460;DHT22;20704;51.260;22.558;2022-08-04T14:55:42;27.50;91.30
34460;DHT22;20704;51.260;22.558;2022-08-04T14:58:26;27.60;91.00
34460;DHT22;20704;51.260;22.558;2022-08-04T15:00:56;27.50;91.70
34460;DHT22;20704;51.260;22.558;2022-08-04T15:10:43;27.60;90.80
34460;DHT22;20704;51.260;22.558;2022-08-04T15:13:10;27.60;90.90
34460;DHT22;20704;51.260;22.558;2022-08-04T15:18:08;27.40;95.20
34460;DHT22;20704;51.260;22.558;2022-08-04T15:23:04;27.50;93.10
34460;DHT22;20704;51.260;22.558;2022-08-04T15:25:57;27.60;95.30
34460;DHT22;20704;51.260;22.558;2022-08-04T15:28:26;27.50;91.20
34460;DHT22;20704;51.260;22.558;2022-08-04T15:30:54;27.80;90.70
34460;DHT22;20704;51.260;22.558;2022-08-04T15:33:22;27.50;90.50
34460;DHT22;20704;51.260;22.558;2022-08-04T15:36:11;27.10;90.20
34460;DHT22;20704;51.260;22.558;2022-08-04T15:49:22;27.30;91.10
34460;DHT22;20704;51.260;22.558;2022-08-04T15:52:06;27.40;91.40
34460;DHT22;20704;51.260;22.558;2022-08-04T16:00:05;26.80;92.00
34460;DHT22;20704;51.260;22.558;2022-08-04T16:02:39;26.80;91.70
34460;DHT22;20704;51.260;22.558;2022-08-04T16:12:56;27.20;95.90
34460;DHT22;20704;51.260;22.558;2022-08-04T16:15:40;27.10;94.00
34460;DHT22;20704;51.260;22.558;2022-08-04T16:18:08;27.10;91.50
34460;DHT22;20704;51.260;22.558;2022-08-04T16:20:35;27.30;95.40
34460;DHT22;20704;51.260;22.558;2022-08-04T16:31:07;26.50;91.60
34460;DHT22;20704;51.260;22.558;2022-08-04T16:36:01;26.70;92.10
34460;DHT22;20704;51.260;22.558;2022-08-04T16:40:58;26.70;92.20
34460;DHT22;20704;51.260;22.558;2022-08-04T16:43:29;26.60;93.70
34460;DHT22;20704;51.260;22.558;2022-08-04T16:45:57;26.60;92.20
34460;DHT22;20704;51.260;22.558;2022-08-04T16:48:28;26.70;92.20
34460;DHT22;20704;51.260;22.558;2022-08-04T16:53:24;26.80;92.00
34460;DHT22;20704;51.260;22.558;2022-08-04T16:55:53;26.80;91.80
34460;DHT22;20704;51.260;22.558;2022-08-04T16:58:28;27.00;96.80
34460;DHT22;20704;51.260;22.558;2022-08-04T17:10:46;26.60;92.70
34460;DHT22;20704;51.260;22.558;2022-08-04T17:13:27;26.60;92.80
34460;DHT22;20704;51.260;22.558;2022-08-04T17:15:56;26.50;92.70
34460;DHT22;20704;51.260;22.558;2022-08-04T17:18:28;26.50;92.70
34460;DHT22;20704;51.260;22.558;2022-08-04T17:20:57;26.60;92.80
34460;DHT22;20704;51.260;22.558;2022-08-04T17:26:05;26.40;97.90
34460;DHT22;20704;51.260;22.558;2022-08-04T17:31:00;26.40;93.50
34460;DHT22;20704;51.260;22.558;2022-08-04T17:35:58;26.40;97.70
34460;DHT22;20704;51.260;22.558;2022-08-04T17:38:39;26.30;93.60
34460;DHT22;20704;51.260;22.558;2022-08-04T17:41:07;26.10;93.70
34460;DHT22;20704;51.260;22.558;2022-08-04T17:48:58;26.00;98.60
34460;DHT22;20704;51.260;22.558;2022-08-04T17:51:34;25.90;98.90
34460;DHT22;20704;51.260;22.558;2022-08-04T17:54:01;25.90;94.40
34460;DHT22;20704;51.260;22.558;2022-08-04T17:59:16;25.90;94.80
34460;DHT22;20704;51.260;22.558;2022-08-04T18:09:29;25.60;99.90
34460;DHT22;20704;51.260;22.558;2022-08-04T18:11:58;25.60;95.90
34460;DHT22;20704;51.260;22.558;2022-08-04T18:14:26;25.50;95.90
34460;DHT22;20704;51.260;22.558;2022-08-04T18:24:13;25.30;96.60
34460;DHT22;20704;51.260;22.558;2022-08-04T18:26:39;25.30;96.80
34460;DHT22;20704;51.260;22.558;2022-08-04T18:31:35;25.10;97.10
34460;DHT22;20704;51.260;22.558;2022-08-04T18:34:03;25.10;97.20
34460;DHT22;20704;51.260;22.558;2022-08-04T18:39:01;25.00;97.60
34460;DHT22;20704;51.260;22.558;2022-08-04T18:43:55;25.00;98.00
34460;DHT22;20704;51.260;22.558;2022-08-04T18:46:22;24.90;98.10
34460;DHT22;20704;51.260;22.558;2022-08-04T18:53:46;24.80;98.80
34460;DHT22;20704;51.260;22.558;2022-08-04T18:56:14;24.70;99.00
34460;DHT22;20704;51.260;22.558;2022-08-04T19:06:01;24.60;99.80
34460;DHT22;20704;51.260;22.558;2022-08-04T19:08:31;24.60;99.90
34460;DHT22;20704;51.260;22.558;2022-08-04T19:10:57;24.60;99.90
34460;DHT22;20704;51.260;22.558;2022-08-04T19:15:52;24.40;99.90
34460;DHT22;20704;51.260;22.558;2022-08-04T19:35:24;24.00;99.90
34460;DHT22;20704;51.260;22.558;2022-08-04T19:50:03;23.90;99.90
34460;DHT22;20704;51.260;22.558;2022-08-04T19:52:29;24.00;99.90
34460;DHT22;20704;51.260;22.558;2022-08-04T20:02:14;23.70;99.90
34460;DHT22;20704;51.260;22.558;2022-08-04T20:16:55;23.80;99.90
34460;DHT22;20704;51.260;22.558;2022-08-04T20:24:17;23.40;99.90
34460;DHT22;20704;51.260;22.558;2022-08-04T20:29:09;23.30;99.90
34460;DHT22;20704;51.260;22.558;2022-08-04T20:31:35;23.50;99.90
34460;DHT22;20704;51.260;22.558;2022-08-04T20:38:53;23.20;99.90
34460;DHT22;20704;51.260;22.558;2022-08-04T20:43:47;22.90;99.90
34460;DHT22;20704;51.260;22.558;2022-08-04T21:30:10;22.20;99.90
34460;DHT22;20704;51.260;22.558;2022-08-04T22:14:07;22.20;99.90
34460;DHT22;20704;51.260;22.558;2022-08-04T22:23:54;22.00;99.90
34460;DHT22;20704;51.260;22.558;2022-08-04T22:26:22;22.10;99.90
34460;DHT22;20704;51.260;22.558;2022-08-04T22:28:50;22.10;99.90
34460;DHT22;20704;51.260;22.558;2022-08-04T22:31:17;22.10;99.90
34460;DHT22;20704;51.260;22.558;2022-08-04T22:36:11;21.90;99.90
34460;DHT22;20704;51.260;22.558;2022-08-04T22:41:10;21.90;99.90
34460;DHT22;20704;51.260;22.558;2022-08-04T22:46:04;21.90;99.90
34460;DHT22;20704;51.260;22.558;2022-08-04T22:48:32;21.90;99.90
34460;DHT22;20704;51.260;22.558;2022-08-04T22:50:59;25.30;99.90
34460;DHT22;20704;51.260;22.558;2022-08-04T23:25:13;21.80;99.90
34460;DHT22;20704;51.260;22.558;2022-08-04T23:27:39;21.50;99.90
34460;DHT22;20704;51.260;22.558;2022-08-04T23:30:06;21.70;99.90
34460;DHT22;20704;51.260;22.558;2022-08-04T23:52:03;21.60;99.90
